createdAt,value
2019-02-09T00:00:37.426Z,23.55
2019-02-09T00:03:10.516Z,23.12
2019-02-09T00:05:43.205Z,19.95
2019-02-09T00:08:16.492Z,28.77
2019-02-09T00:10:50.382Z,32.40
2019-02-09T00:13:24.410Z,46.77
2019-02-09T00:15:58.413Z,26.67
2019-02-09T00:18:31.407Z,26.62
2019-02-09T00:21:02.977Z,21.67
2019-02-09T00:23:34.370Z,18.33
2019-02-09T00:26:07.584Z,29.43
2019-02-09T00:28:38.845Z,29.87
2019-02-09T00:31:10.247Z,27.47
2019-02-09T00:33:41.519Z,21.93
2019-02-09T00:36:14.534Z,28.10
2019-02-09T00:38:48.970Z,18.80
2019-02-09T00:41:22.571Z,20.80
2019-02-09T00:43:53.911Z,24.00
2019-02-09T00:46:27.409Z,32.50
2019-02-09T00:48:58.658Z,30.53
2019-02-09T00:51:32.655Z,21.25
2019-02-09T00:54:06.694Z,23.63
2019-02-09T00:56:38.463Z,18.77
2019-02-09T00:59:11.678Z,18.07
2019-02-09T01:01:44.595Z,20.43
2019-02-09T01:04:17.790Z,44.37
2019-02-09T01:06:51.043Z,20.13
2019-02-09T01:09:23.879Z,27.05
2019-02-09T01:11:57.813Z,19.53
2019-02-09T01:14:29.032Z,24.43
2019-02-09T01:17:02.804Z,17.93
2019-02-09T01:19:36.842Z,23.17
2019-02-09T01:22:10.839Z,29.47
2019-02-09T01:24:42.103Z,22.20
2019-02-09T01:27:15.691Z,17.77
2019-02-09T01:29:49.873Z,23.67
2019-02-09T01:32:23.865Z,23.40
2019-02-09T01:34:56.084Z,34.37
2019-02-09T01:37:28.903Z,26.80
2019-02-09T01:40:00.206Z,26.30
2019-02-09T01:42:32.204Z,18.17
2019-02-09T01:45:05.497Z,20.17
2019-02-09T01:47:37.844Z,16.27
2019-02-09T01:50:11.975Z,16.17
2019-02-09T01:52:45.150Z,26.45
2019-02-09T01:55:18.797Z,25.53
2019-02-09T01:57:51.953Z,19.75
2019-02-09T02:00:29.255Z,23.75
2019-02-09T02:03:02.298Z,36.25
2019-02-09T02:05:34.101Z,21.33
2019-02-09T02:08:07.840Z,24.43
2019-02-09T02:10:39.594Z,16.40
2019-02-09T02:13:12.862Z,30.02
2019-02-09T02:15:45.001Z,17.20
2019-02-09T02:18:17.071Z,28.33
2019-02-09T02:20:48.337Z,29.70
2019-02-09T02:23:22.047Z,27.90
2019-02-09T02:25:53.984Z,25.80
2019-02-09T02:28:25.999Z,27.50
2019-02-09T02:30:59.957Z,26.53
2019-02-09T02:33:31.241Z,20.77
2019-02-09T02:36:03.510Z,22.17
2019-02-09T02:38:36.152Z,21.80
2019-02-09T02:41:08.183Z,25.50
2019-02-09T02:43:39.445Z,28.03
2019-02-09T02:46:12.156Z,16.90
2019-02-09T02:48:43.673Z,20.80
2019-02-09T02:51:15.016Z,22.20
2019-02-09T02:53:48.236Z,20.77
2019-02-09T02:56:23.984Z,23.90
2019-02-09T02:58:56.240Z,20.53
2019-02-09T03:01:27.517Z,18.42
2019-02-09T03:03:59.163Z,18.60
2019-02-09T03:06:32.182Z,16.87
2019-02-09T03:09:09.042Z,28.07
2019-02-09T03:11:42.314Z,34.27
2019-02-09T03:14:16.086Z,30.17
2019-02-09T03:16:48.356Z,19.87
2019-02-09T03:19:22.307Z,30.57
2019-02-09T03:21:56.195Z,15.50
2019-02-09T03:24:27.459Z,19.50
2019-02-09T03:27:01.396Z,26.60
2019-02-09T03:29:35.501Z,21.30
2019-02-09T03:32:11.019Z,23.67
2019-02-09T03:34:45.402Z,23.60
2019-02-09T03:37:17.122Z,18.73
2019-02-09T03:39:48.389Z,16.70
2019-02-09T03:42:24.256Z,19.27
2019-02-09T03:45:00.020Z,16.53
2019-02-09T03:47:32.530Z,27.47
2019-02-09T03:50:08.394Z,22.40
2019-02-09T03:52:42.407Z,21.37
2019-02-09T03:55:15.584Z,35.33
2019-02-09T03:57:48.493Z,14.40
2019-02-09T04:00:24.421Z,17.70
2019-02-09T04:02:56.921Z,28.27
2019-02-09T04:05:30.724Z,18.45
2019-02-09T04:08:04.825Z,21.63
2019-02-09T04:10:38.620Z,19.97
2019-02-09T04:13:13.285Z,19.63
2019-02-09T04:15:45.682Z,23.77
2019-02-09T04:18:17.209Z,19.83
2019-02-09T04:20:48.514Z,24.77
2019-02-09T04:23:22.167Z,26.65
2019-02-09T04:25:56.040Z,23.83
2019-02-09T04:28:29.661Z,25.75
2019-02-09T04:31:06.543Z,23.50
2019-02-09T04:33:37.657Z,18.60
2019-02-09T04:36:08.934Z,18.25
2019-02-09T04:38:42.740Z,22.17
2019-02-09T04:41:16.740Z,23.90
2019-02-09T04:43:50.725Z,25.50
2019-02-09T04:46:24.769Z,17.93
2019-02-09T04:49:00.236Z,24.30
2019-02-09T04:51:32.662Z,20.20
2019-02-09T04:54:08.245Z,19.90
2019-02-09T04:56:39.464Z,19.60
2019-02-09T04:59:11.723Z,21.90
2019-02-09T05:01:44.892Z,24.35
2019-02-09T05:04:17.009Z,26.70
2019-02-09T05:06:49.764Z,26.07
2019-02-09T05:09:21.455Z,31.02
2019-02-09T05:11:53.622Z,26.57
2019-02-09T05:14:25.757Z,28.93
2019-02-09T05:16:59.762Z,26.15
2019-02-09T05:19:33.836Z,23.83
2019-02-09T05:22:07.889Z,27.40
2019-02-09T05:24:39.227Z,29.70
2019-02-09T05:27:12.965Z,28.73
2019-02-09T05:29:44.827Z,28.85
2019-02-09T05:32:16.863Z,20.10
2019-02-09T05:34:48.143Z,29.50
2019-02-09T05:37:19.397Z,33.67
2019-02-09T05:39:52.859Z,20.52
2019-02-09T05:42:26.925Z,23.77
2019-02-09T05:45:00.992Z,25.87
2019-02-09T05:47:36.555Z,28.13
2019-02-09T05:50:10.334Z,25.60
2019-02-09T05:52:41.659Z,23.90
2019-02-09T05:55:14.271Z,23.60
2019-02-09T05:57:48.252Z,25.27
2019-02-09T06:00:34.732Z,31.90
2019-02-09T06:03:08.230Z,33.98
2019-02-09T06:05:39.476Z,26.93
2019-02-09T06:08:13.021Z,32.27
2019-02-09T06:10:45.294Z,26.77
2019-02-09T06:13:18.756Z,27.40
2019-02-09T06:15:52.205Z,31.40
2019-02-09T06:18:26.212Z,35.73
2019-02-09T06:20:58.052Z,38.40
2019-02-09T06:23:30.277Z,38.83
2019-02-09T06:26:04.533Z,43.10
2019-02-09T06:28:38.238Z,36.53
2019-02-09T06:31:11.263Z,40.13
2019-02-09T06:33:43.203Z,42.62
2019-02-09T06:36:17.241Z,38.70
2019-02-09T06:38:51.364Z,43.73
2019-02-09T06:41:25.253Z,61.30
2019-02-09T06:44:00.804Z,57.67
2019-02-09T06:46:34.293Z,51.28
2019-02-09T06:49:07.476Z,56.37
2019-02-09T06:51:38.910Z,63.97
2019-02-09T06:54:12.276Z,58.93
2019-02-09T06:56:45.235Z,48.63
2019-02-09T06:59:17.383Z,45.47
2019-02-09T07:01:51.321Z,57.15
2019-02-09T07:04:22.622Z,53.90
2019-02-09T07:06:56.346Z,44.60
2019-02-09T07:09:31.908Z,34.17
2019-02-09T07:12:04.833Z,34.17
2019-02-09T07:14:39.688Z,39.93
2019-02-09T07:17:13.213Z,37.23
2019-02-09T07:19:46.282Z,35.07
2019-02-09T07:22:20.409Z,35.30
2019-02-09T07:24:55.088Z,35.67
2019-02-09T07:27:28.321Z,34.77
2019-02-09T07:30:02.455Z,33.63
2019-02-09T07:32:33.805Z,32.73
2019-02-09T07:35:09.155Z,39.90
2019-02-09T07:37:42.633Z,46.37
2019-02-09T07:40:16.180Z,34.33
2019-02-09T07:42:48.511Z,38.13
2019-02-09T07:45:22.597Z,44.38
2019-02-09T07:47:54.531Z,54.00
2019-02-09T07:50:28.864Z,40.80
2019-02-09T07:53:02.485Z,50.47
2019-02-09T07:55:36.595Z,44.33
2019-02-09T07:58:09.603Z,54.73
2019-02-09T08:00:42.488Z,56.60
2019-02-09T08:03:14.697Z,44.95
2019-02-09T08:05:46.076Z,45.40
2019-02-09T08:08:17.477Z,58.43
2019-02-09T08:10:51.698Z,82.03
2019-02-09T08:13:25.719Z,60.60
2019-02-09T08:15:59.652Z,56.50
2019-02-09T08:18:31.623Z,68.53
2019-02-09T08:21:04.636Z,53.07
2019-02-09T08:23:38.525Z,42.97
2019-02-09T08:26:12.684Z,61.47
2019-02-09T08:28:45.847Z,40.53
2019-02-09T08:31:19.932Z,41.90
2019-02-09T08:33:53.817Z,38.00
2019-02-09T08:36:26.012Z,46.57
2019-02-09T08:38:58.624Z,45.70
2019-02-09T08:41:30.343Z,42.33
2019-02-09T08:44:03.758Z,65.03
2019-02-09T08:46:37.860Z,61.93
2019-02-09T08:49:11.943Z,55.43
2019-02-09T08:51:48.834Z,43.80
2019-02-09T08:54:23.906Z,53.00
2019-02-09T08:56:56.989Z,44.53
2019-02-09T08:59:28.318Z,45.70
2019-02-09T09:02:03.278Z,50.60
2019-02-09T09:04:37.030Z,51.63
2019-02-09T09:07:10.230Z,51.43
2019-02-09T09:09:42.163Z,58.90
2019-02-09T09:12:14.812Z,63.17
2019-02-09T09:14:48.913Z,62.53
2019-02-09T09:17:23.026Z,66.03
2019-02-09T09:19:56.823Z,71.13
2019-02-09T09:22:30.982Z,63.80
2019-02-09T09:25:02.238Z,52.63
2019-02-09T09:27:33.478Z,57.45
2019-02-09T09:30:09.147Z,63.83
2019-02-09T09:32:42.996Z,54.27
2019-02-09T09:35:15.237Z,53.93
2019-02-09T09:37:48.868Z,53.83
2019-02-09T09:40:25.258Z,44.63
2019-02-09T09:42:57.340Z,44.83
2019-02-09T09:45:33.062Z,42.10
2019-02-09T09:48:05.835Z,40.27
2019-02-09T09:50:39.321Z,46.37
2019-02-09T09:53:12.839Z,41.63
2019-02-09T09:55:44.245Z,46.90
2019-02-09T09:58:18.149Z,38.10
2019-02-09T10:00:51.301Z,48.53
2019-02-09T10:03:25.092Z,35.43
2019-02-09T10:05:59.099Z,41.97
2019-02-09T10:08:31.159Z,43.37
2019-02-09T10:11:07.252Z,53.10
2019-02-09T10:13:39.216Z,50.83
2019-02-09T10:16:12.110Z,51.03
2019-02-09T10:18:45.391Z,58.63
2019-02-09T10:21:17.179Z,50.57
2019-02-09T10:23:49.278Z,47.90
2019-02-09T10:26:23.031Z,46.70
2019-02-09T10:28:54.302Z,42.67
2019-02-09T10:31:27.233Z,47.23
2019-02-09T10:33:58.503Z,49.70
2019-02-09T10:36:33.902Z,44.10
2019-02-09T10:39:09.734Z,48.50
2019-02-09T10:41:42.333Z,43.00
2019-02-09T10:44:14.336Z,35.13
2019-02-09T10:46:48.203Z,40.07
2019-02-09T10:49:19.451Z,44.83
2019-02-09T10:51:53.265Z,49.70
2019-02-09T10:54:25.447Z,42.30
2019-02-09T10:56:58.470Z,38.73
2019-02-09T10:59:34.220Z,36.93
2019-02-09T11:02:06.669Z,39.03
2019-02-09T11:04:39.273Z,39.97
2019-02-09T11:07:11.196Z,39.23
2019-02-09T11:09:45.468Z,31.87
2019-02-09T11:12:19.399Z,40.60
2019-02-09T11:14:52.942Z,42.27
2019-02-09T11:17:26.975Z,33.87
2019-02-09T11:20:00.543Z,38.87
2019-02-09T11:22:31.840Z,34.63
2019-02-09T11:25:03.351Z,41.33
2019-02-09T11:27:36.571Z,32.33
2019-02-09T11:30:13.998Z,32.50
2019-02-09T11:32:45.558Z,29.47
2019-02-09T11:35:18.685Z,31.10
2019-02-09T11:37:51.660Z,40.03
2019-02-09T11:40:23.885Z,33.53
2019-02-09T11:42:58.346Z,39.20
2019-02-09T11:45:32.345Z,48.30
2019-02-09T11:48:06.257Z,38.43
2019-02-09T11:50:38.514Z,38.47
2019-02-09T11:53:10.642Z,37.20
2019-02-09T11:55:42.739Z,40.13
2019-02-09T11:58:16.223Z,29.77
2019-02-09T12:00:51.987Z,31.67
2019-02-09T12:03:23.574Z,32.83
2019-02-09T12:05:57.664Z,37.03
2019-02-09T12:08:31.699Z,30.83
2019-02-09T12:11:05.651Z,25.00
2019-02-09T12:13:39.504Z,25.00
2019-02-09T12:16:15.280Z,21.43
2019-02-09T12:18:48.659Z,22.65
2019-02-09T12:21:20.730Z,18.77
2019-02-09T12:23:54.693Z,32.40
2019-02-09T12:26:26.079Z,25.33
2019-02-09T12:28:57.354Z,34.37
2019-02-09T12:31:30.880Z,40.63
2019-02-09T12:34:04.950Z,25.57
2019-02-09T12:36:40.444Z,29.80
2019-02-09T12:39:12.832Z,37.50
2019-02-09T12:41:45.811Z,51.23
2019-02-09T12:44:17.884Z,43.77
2019-02-09T12:46:49.175Z,40.83
2019-02-09T12:49:22.844Z,50.40
2019-02-09T12:51:56.855Z,37.37
2019-02-09T12:54:28.922Z,38.73
2019-02-09T12:57:01.798Z,39.73
2019-02-09T12:59:35.896Z,37.87
2019-02-09T13:02:08.789Z,48.53
2019-02-09T13:04:40.153Z,43.50
2019-02-09T13:07:12.417Z,33.55
2019-02-09T13:09:45.933Z,35.13
2019-02-09T13:12:18.968Z,29.23
2019-02-09T13:14:56.936Z,33.17
2019-02-09T13:17:28.885Z,28.07
2019-02-09T13:20:02.798Z,30.53
2019-02-09T13:22:35.121Z,31.10
2019-02-09T13:25:09.236Z,32.70
2019-02-09T13:27:40.476Z,23.80
2019-02-09T13:30:20.764Z,31.57
2019-02-09T13:32:54.220Z,26.57
2019-02-09T13:35:28.289Z,29.60
2019-02-09T13:38:02.062Z,24.17
2019-02-09T13:40:36.012Z,19.70
2019-02-09T13:43:09.179Z,22.20
2019-02-09T13:45:43.419Z,29.20
2019-02-09T13:48:15.101Z,40.00
2019-02-09T13:50:50.741Z,26.20
2019-02-09T13:53:23.067Z,22.90
2019-02-09T13:55:56.245Z,30.90
2019-02-09T13:58:30.154Z,31.57
2019-02-09T14:01:01.637Z,24.57
2019-02-09T14:03:32.881Z,21.43
2019-02-09T14:06:08.363Z,24.03
2019-02-09T14:08:39.549Z,64.03
2019-02-09T14:11:11.187Z,76.93
2019-02-09T14:13:43.179Z,59.70
2019-02-09T14:16:16.280Z,53.07
2019-02-09T14:18:49.244Z,32.63
2019-02-09T14:21:21.249Z,28.85
2019-02-09T14:23:56.949Z,26.70
2019-02-09T14:26:29.334Z,50.67
2019-02-09T14:29:03.279Z,50.17
2019-02-09T14:31:37.542Z,19.33
2019-02-09T14:34:11.658Z,21.73
2019-02-09T14:36:43.283Z,18.60
2019-02-09T14:39:16.322Z,14.63
2019-02-09T14:41:47.579Z,15.50
2019-02-09T14:44:21.264Z,17.20
2019-02-09T14:46:55.491Z,17.47
2019-02-09T14:49:29.395Z,15.80
2019-02-09T14:52:01.447Z,39.57
2019-02-09T14:54:34.346Z,43.73
2019-02-09T14:57:08.562Z,27.53
2019-02-09T14:59:39.982Z,38.87
2019-02-09T15:02:13.367Z,38.53
2019-02-09T15:04:47.378Z,33.60
2019-02-09T15:07:18.665Z,22.23
2019-02-09T15:09:52.354Z,14.20
2019-02-09T15:12:24.488Z,27.83
2019-02-09T15:14:57.430Z,29.73
2019-02-09T15:17:31.346Z,16.93
2019-02-09T15:20:02.614Z,26.57
2019-02-09T15:22:36.370Z,19.40
2019-02-09T15:25:10.583Z,29.87
2019-02-09T15:27:45.197Z,18.80
2019-02-09T15:30:21.282Z,37.15
2019-02-09T15:32:52.621Z,38.87
2019-02-09T15:35:26.538Z,25.02
2019-02-09T15:38:00.557Z,27.93
2019-02-09T15:40:33.702Z,18.73
2019-02-09T15:43:05.764Z,21.73
2019-02-09T15:45:38.575Z,22.03
2019-02-09T15:48:12.679Z,18.10
2019-02-09T15:50:44.235Z,20.50
2019-02-09T15:53:19.375Z,19.42
2019-02-09T15:55:51.753Z,18.43
2019-02-09T15:58:25.841Z,14.53
2019-02-09T16:00:59.796Z,17.37
2019-02-09T16:03:33.707Z,18.33
2019-02-09T16:06:05.154Z,14.90
2019-02-09T16:08:38.741Z,25.37
2019-02-09T16:11:10.695Z,19.70
2019-02-09T16:13:45.886Z,18.43
2019-02-09T16:16:17.603Z,12.40
2019-02-09T16:18:51.608Z,19.67
2019-02-09T16:21:25.709Z,14.38
2019-02-09T16:23:57.002Z,22.90
2019-02-09T16:26:31.394Z,19.60
2019-02-09T16:29:04.718Z,18.80
2019-02-09T16:31:36.148Z,18.60
2019-02-09T16:34:09.846Z,20.77
2019-02-09T16:36:42.721Z,21.87
2019-02-09T16:39:14.932Z,25.10
2019-02-09T16:41:46.183Z,22.07
2019-02-09T16:44:19.718Z,20.80
2019-02-09T16:46:52.095Z,16.80
2019-02-09T16:49:24.914Z,25.90
2019-02-09T16:52:00.849Z,22.17
2019-02-09T16:54:32.898Z,26.37
2019-02-09T16:57:05.964Z,23.27
2019-02-09T16:59:39.770Z,27.10
2019-02-09T17:02:11.442Z,32.87
2019-02-09T17:04:42.741Z,34.10
2019-02-09T17:07:16.094Z,31.17
2019-02-09T17:09:49.933Z,26.70
2019-02-09T17:12:24.028Z,33.10
2019-02-09T17:14:58.196Z,26.57
2019-02-09T17:17:32.045Z,26.20
2019-02-09T17:20:03.299Z,31.30
2019-02-09T17:22:34.548Z,27.27
2019-02-09T17:25:08.575Z,31.23
2019-02-09T17:27:40.100Z,23.20
2019-02-09T17:30:22.418Z,26.60
2019-02-09T17:32:53.912Z,25.17
2019-02-09T17:35:27.117Z,31.20
2019-02-09T17:38:01.355Z,27.80
2019-02-09T17:40:37.456Z,24.07
2019-02-09T17:43:09.963Z,28.30
2019-02-09T17:45:52.235Z,24.87
2019-02-09T17:48:26.210Z,23.37
2019-02-09T17:51:00.276Z,21.50
2019-02-09T17:53:31.961Z,28.30
2019-02-09T17:56:03.215Z,27.23
2019-02-09T17:58:36.332Z,29.60
2019-02-09T18:01:11.257Z,24.80
2019-02-09T18:03:43.141Z,21.00
2019-02-09T18:06:15.265Z,22.70
2019-02-09T18:08:49.292Z,23.07
2019-02-09T18:11:24.902Z,32.28
2019-02-09T18:13:57.329Z,33.33
2019-02-09T18:16:30.789Z,34.13
2019-02-09T18:19:03.290Z,35.03
2019-02-09T18:21:37.388Z,40.40
2019-02-09T18:24:10.289Z,34.53
2019-02-09T18:26:43.467Z,44.87
2019-02-09T18:29:16.160Z,48.30
2019-02-09T18:31:49.359Z,37.60
2019-02-09T18:34:23.414Z,34.97
2019-02-09T18:36:55.479Z,24.50
2019-02-09T18:39:28.418Z,32.80
2019-02-09T18:42:02.407Z,32.47
2019-02-09T18:44:36.354Z,34.50
2019-02-09T18:47:08.239Z,36.03
2019-02-09T18:49:39.922Z,63.07
2019-02-09T18:52:12.447Z,55.20
2019-02-09T18:54:46.778Z,34.50
2019-02-09T18:57:20.554Z,42.70
2019-02-09T18:59:52.527Z,32.97
2019-02-09T19:02:25.100Z,31.97
2019-02-09T19:05:03.209Z,54.83
2019-02-09T19:07:30.542Z,39.40
2019-02-09T19:10:04.211Z,42.40
2019-02-09T19:12:35.550Z,36.13
2019-02-09T19:15:08.518Z,36.60
2019-02-09T19:17:40.059Z,40.00
2019-02-09T19:20:18.983Z,38.17
2019-02-09T19:22:51.865Z,35.40
2019-02-09T19:25:23.759Z,36.13
2019-02-09T19:27:56.740Z,44.63
2019-02-09T19:30:31.452Z,34.03
2019-02-09T19:33:05.492Z,30.90
2019-02-09T19:35:38.667Z,43.03
2019-02-09T19:38:12.728Z,45.63
2019-02-09T19:40:43.981Z,50.28
2019-02-09T19:43:17.714Z,62.50
2019-02-09T19:45:51.735Z,53.60
2019-02-09T19:48:27.350Z,54.63
2019-02-09T19:50:59.776Z,37.33
2019-02-09T19:53:33.702Z,39.92
2019-02-09T19:56:05.213Z,33.77
2019-02-09T19:58:38.792Z,38.70
2019-02-09T20:01:12.809Z,32.73
2019-02-09T20:03:48.386Z,29.30
2019-02-09T20:06:21.832Z,33.43
2019-02-09T20:08:54.622Z,32.83
2019-02-09T20:11:25.905Z,30.93
2019-02-09T20:13:59.938Z,38.10
2019-02-09T20:16:32.817Z,40.70
2019-02-09T20:19:06.812Z,41.93
2019-02-09T20:21:40.137Z,35.33
2019-02-09T20:24:11.920Z,42.80
2019-02-09T20:26:43.813Z,44.97
2019-02-09T20:29:15.103Z,47.60
2019-02-09T20:31:46.818Z,44.10
2019-02-09T20:34:18.471Z,47.27
2019-02-09T20:36:51.990Z,46.80
2019-02-09T20:39:26.029Z,41.60
2019-02-09T20:42:00.032Z,40.17
2019-02-09T20:44:33.918Z,38.23
2019-02-09T20:47:07.983Z,45.60
2019-02-09T20:49:39.251Z,46.53
2019-02-09T20:52:13.094Z,38.20
2019-02-09T20:54:46.993Z,43.60
2019-02-09T20:57:22.579Z,42.43
2019-02-09T20:59:55.022Z,38.63
2019-02-09T21:02:28.762Z,43.85
2019-02-09T21:05:00.859Z,37.83
2019-02-09T21:07:34.058Z,37.77
2019-02-09T21:10:11.672Z,34.33
2019-02-09T21:12:43.426Z,30.70
2019-02-09T21:15:15.762Z,33.53
2019-02-09T21:17:49.249Z,35.43
2019-02-09T21:20:23.105Z,40.43
2019-02-09T21:22:57.203Z,35.07
2019-02-09T21:25:32.806Z,32.90
2019-02-09T21:28:04.461Z,33.03
2019-02-09T21:30:37.220Z,29.53
2019-02-09T21:33:09.282Z,39.23
2019-02-09T21:35:44.186Z,30.83
2019-02-09T21:38:14.096Z,33.98
2019-02-09T21:40:45.383Z,36.00
2019-02-09T21:43:20.789Z,34.33
2019-02-09T21:45:53.201Z,34.73
2019-02-09T21:48:27.270Z,37.13
2019-02-09T21:51:01.223Z,44.80
2019-02-09T21:53:35.424Z,29.67
2019-02-09T21:56:09.195Z,33.13
2019-02-09T21:58:40.622Z,37.17
2019-02-09T22:01:13.229Z,29.82
2019-02-09T22:03:46.414Z,37.43
2019-02-09T22:06:18.303Z,34.70
2019-02-09T22:08:52.218Z,34.80
2019-02-09T22:11:23.663Z,28.33
2019-02-09T22:13:57.340Z,38.30
2019-02-09T22:16:31.350Z,38.30
2019-02-09T22:19:05.436Z,30.37
2019-02-09T22:21:39.732Z,34.83
2019-02-09T22:24:12.976Z,32.30
2019-02-09T22:26:44.276Z,34.00
2019-02-09T22:29:17.434Z,21.03
2019-02-09T22:31:51.343Z,30.83
2019-02-09T22:34:25.446Z,27.10
2019-02-09T22:36:59.447Z,28.25
2019-02-09T22:39:33.267Z,30.65
2019-02-09T22:42:04.664Z,24.60
2019-02-09T22:44:38.500Z,21.73
2019-02-09T22:47:12.557Z,24.23
2019-02-09T22:49:46.626Z,22.47
2019-02-09T22:52:19.501Z,34.80
2019-02-09T22:54:50.872Z,33.43
2019-02-09T22:57:22.504Z,28.33
2019-02-09T22:59:55.455Z,18.83
2019-02-09T23:02:28.296Z,18.77
2019-02-09T23:05:41.650Z,21.40
2019-02-09T23:08:13.481Z,17.63
2019-02-09T23:10:44.754Z,12.23
2019-02-09T23:13:18.915Z,11.97
2019-02-09T23:15:52.739Z,15.50
2019-02-09T23:18:24.214Z,14.00
2019-02-09T23:20:56.665Z,17.80
2019-02-09T23:23:31.217Z,15.70
2019-02-09T23:26:04.677Z,12.73
2019-02-09T23:28:36.164Z,17.97
2019-02-09T23:31:07.588Z,18.43
2019-02-09T23:33:40.158Z,16.43
2019-02-09T23:36:16.299Z,22.00
2019-02-09T23:38:45.040Z,31.50
2019-02-09T23:41:16.716Z,28.52
2019-02-09T23:43:48.652Z,32.77
2019-02-09T23:46:20.602Z,25.30
2019-02-09T23:48:53.790Z,23.63
2019-02-09T23:51:25.839Z,29.73
2019-02-09T23:53:58.645Z,27.03
2019-02-09T23:56:29.952Z,28.20
2019-02-09T23:59:02.580Z,24.07
